createdAt,value
2019-01-13T00:01:59.858Z,2.30
2019-01-13T00:04:28.116Z,2.80
2019-01-13T00:06:56.287Z,2.53
2019-01-13T00:09:24.516Z,2.17
2019-01-13T00:11:52.781Z,2.70
2019-01-13T00:14:20.997Z,2.37
2019-01-13T00:16:49.176Z,2.90
2019-01-13T00:19:17.392Z,3.00
2019-01-13T00:21:45.559Z,2.33
2019-01-13T00:24:13.742Z,2.50
2019-01-13T00:26:41.913Z,2.40
2019-01-13T00:29:10.131Z,2.57
2019-01-13T00:31:38.347Z,2.03
2019-01-13T00:34:06.577Z,2.27
2019-01-13T00:36:34.788Z,1.70
2019-01-13T00:39:03.730Z,2.27
2019-01-13T00:41:31.929Z,2.30
2019-01-13T00:44:00.141Z,2.60
2019-01-13T00:46:28.326Z,2.40
2019-01-13T00:48:56.533Z,2.63
2019-01-13T00:51:24.705Z,2.50
2019-01-13T00:53:52.914Z,2.70
2019-01-13T00:56:21.094Z,2.50
2019-01-13T00:58:49.337Z,2.70
2019-01-13T01:01:17.508Z,2.60
2019-01-13T01:03:45.676Z,2.60
2019-01-13T01:06:13.901Z,2.70
2019-01-13T01:08:42.080Z,2.73
2019-01-13T01:11:10.293Z,2.40
2019-01-13T01:13:38.510Z,2.53
2019-01-13T01:16:06.752Z,2.70
2019-01-13T01:18:34.943Z,1.97
2019-01-13T01:21:03.149Z,2.03
2019-01-13T01:23:31.356Z,2.60
2019-01-13T01:25:59.561Z,2.47
2019-01-13T01:28:27.825Z,2.10
2019-01-13T01:30:55.997Z,2.27
2019-01-13T01:33:26.072Z,2.13
2019-01-13T01:35:54.079Z,2.10
2019-01-13T01:38:22.353Z,2.33
2019-01-13T01:40:50.531Z,1.80
2019-01-13T01:43:18.747Z,1.63
2019-01-13T01:45:46.960Z,1.50
2019-01-13T01:48:15.120Z,1.80
2019-01-13T01:50:43.334Z,1.60
2019-01-13T01:53:11.508Z,1.60
2019-01-13T01:55:39.718Z,1.70
2019-01-13T01:58:08.804Z,1.50
2019-01-13T02:00:40.756Z,1.40
2019-01-13T02:03:06.893Z,1.47
2019-01-13T02:05:35.096Z,1.70
2019-01-13T02:08:03.336Z,1.60
2019-01-13T02:10:31.627Z,1.47
2019-01-13T02:12:59.801Z,1.33
2019-01-13T02:15:27.981Z,1.20
2019-01-13T02:17:56.293Z,1.20
2019-01-13T02:20:24.631Z,1.60
2019-01-13T02:22:52.811Z,1.10
2019-01-13T02:25:22.364Z,1.50
2019-01-13T02:27:50.532Z,1.43
2019-01-13T02:30:19.693Z,1.33
2019-01-13T02:32:47.909Z,1.10
2019-01-13T02:35:16.197Z,1.40
2019-01-13T02:37:44.380Z,1.20
2019-01-13T02:40:13.768Z,2.13
2019-01-13T02:42:41.936Z,1.37
2019-01-13T02:45:11.692Z,1.40
2019-01-13T02:47:39.880Z,1.40
2019-01-13T02:50:09.432Z,1.40
2019-01-13T02:52:37.616Z,1.47
2019-01-13T02:55:06.405Z,1.63
2019-01-13T02:57:34.621Z,1.70
2019-01-13T03:00:05.047Z,1.37
2019-01-13T03:02:33.232Z,1.93
2019-01-13T03:05:01.438Z,2.00
2019-01-13T03:07:29.688Z,1.30
2019-01-13T03:09:57.898Z,2.00
2019-01-13T03:12:26.133Z,1.60
2019-01-13T03:14:54.306Z,2.17
2019-01-13T03:17:22.504Z,1.60
2019-01-13T03:19:50.738Z,1.80
2019-01-13T03:22:18.905Z,1.73
2019-01-13T03:24:47.078Z,2.63
2019-01-13T03:27:15.293Z,2.30
2019-01-13T03:29:43.496Z,2.30
2019-01-13T03:32:11.704Z,1.80
2019-01-13T03:34:39.917Z,2.07
2019-01-13T03:37:08.108Z,2.30
2019-01-13T03:39:36.292Z,2.63
2019-01-13T03:42:04.529Z,2.30
2019-01-13T03:44:32.739Z,1.70
2019-01-13T03:47:00.924Z,1.93
2019-01-13T03:49:29.164Z,2.80
2019-01-13T03:51:57.352Z,2.20
2019-01-13T03:54:25.562Z,2.37
2019-01-13T03:56:53.779Z,2.30
2019-01-13T03:59:21.985Z,2.23
2019-01-13T04:01:50.206Z,2.80
2019-01-13T04:04:18.409Z,2.30
2019-01-13T04:06:46.616Z,2.77
2019-01-13T04:09:14.789Z,1.93
2019-01-13T04:11:42.957Z,2.63
2019-01-13T04:14:11.148Z,2.57
2019-01-13T04:16:39.411Z,2.17
2019-01-13T04:19:07.581Z,2.20
2019-01-13T04:21:35.786Z,2.40
2019-01-13T04:24:04.037Z,2.03
2019-01-13T04:26:32.237Z,2.13
2019-01-13T04:29:01.406Z,1.90
2019-01-13T04:31:29.610Z,2.40
2019-01-13T04:33:57.778Z,2.17
2019-01-13T04:36:25.994Z,2.17
2019-01-13T04:38:54.193Z,1.93
2019-01-13T04:41:22.368Z,2.03
2019-01-13T04:43:50.599Z,2.13
2019-01-13T04:46:18.771Z,2.17
2019-01-13T04:48:46.983Z,3.10
2019-01-13T04:51:15.151Z,2.50
2019-01-13T04:53:43.327Z,2.47
2019-01-13T04:56:11.512Z,2.30
2019-01-13T04:58:39.685Z,2.10
2019-01-13T05:01:08.679Z,2.23
2019-01-13T05:03:36.945Z,2.20
2019-01-13T05:06:05.192Z,2.10
2019-01-13T05:08:33.409Z,1.90
2019-01-13T05:11:01.596Z,2.20
2019-01-13T05:13:29.767Z,2.20
2019-01-13T05:15:57.981Z,2.20
2019-01-13T05:18:26.184Z,2.30
2019-01-13T05:20:54.392Z,2.03
2019-01-13T05:23:22.672Z,2.20
2019-01-13T05:25:50.913Z,2.27
2019-01-13T05:28:19.144Z,2.07
2019-01-13T05:30:47.319Z,2.77
2019-01-13T05:33:15.496Z,2.20
2019-01-13T05:35:43.689Z,2.10
2019-01-13T05:38:11.857Z,2.00
2019-01-13T05:40:40.040Z,2.10
2019-01-13T05:43:08.212Z,2.23
2019-01-13T05:45:36.425Z,1.97
2019-01-13T05:48:04.594Z,2.00
2019-01-13T05:50:32.763Z,1.90
2019-01-13T05:53:01.130Z,2.03
2019-01-13T05:55:29.329Z,2.10
2019-01-13T05:57:57.499Z,2.00
2019-01-13T06:00:26.280Z,2.00
2019-01-13T06:02:54.489Z,2.00
2019-01-13T06:05:22.671Z,1.83
2019-01-13T06:07:50.856Z,1.87
2019-01-13T06:10:19.589Z,1.80
2019-01-13T06:12:47.880Z,1.87
2019-01-13T06:15:17.165Z,2.20
2019-01-13T06:17:45.368Z,1.93
2019-01-13T06:20:14.720Z,2.20
2019-01-13T06:22:42.978Z,2.07
2019-01-13T06:25:11.226Z,2.20
2019-01-13T06:27:39.421Z,1.50
2019-01-13T06:30:09.177Z,1.90
2019-01-13T06:32:37.352Z,2.10
2019-01-13T06:35:06.007Z,2.23
2019-01-13T06:37:34.289Z,2.20
2019-01-13T06:40:02.486Z,2.10
2019-01-13T06:42:30.693Z,2.67
2019-01-13T06:44:58.856Z,2.20
2019-01-13T06:47:27.069Z,2.50
2019-01-13T06:49:55.246Z,2.30
2019-01-13T06:52:23.455Z,2.30
2019-01-13T06:54:51.657Z,2.00
2019-01-13T06:57:19.854Z,2.17
2019-01-13T06:59:48.032Z,2.27
2019-01-13T07:02:16.224Z,2.60
2019-01-13T07:04:44.404Z,2.37
2019-01-13T07:07:12.624Z,2.30
2019-01-13T07:09:40.799Z,2.53
2019-01-13T07:12:08.971Z,2.40
2019-01-13T07:14:37.187Z,2.10
2019-01-13T07:17:05.355Z,2.13
2019-01-13T07:19:33.581Z,2.20
2019-01-13T07:22:01.797Z,1.73
2019-01-13T07:24:30.001Z,2.23
2019-01-13T07:26:58.171Z,2.57
2019-01-13T07:29:26.413Z,2.00
2019-01-13T07:31:55.551Z,2.20
2019-01-13T07:34:23.724Z,2.17
2019-01-13T07:36:52.016Z,1.60
2019-01-13T07:39:20.272Z,1.90
2019-01-13T07:41:48.452Z,2.17
2019-01-13T07:44:17.562Z,2.20
2019-01-13T07:46:45.891Z,2.10
2019-01-13T07:49:14.080Z,2.70
2019-01-13T07:51:42.297Z,2.10
2019-01-13T07:54:10.520Z,2.37
2019-01-13T07:56:38.715Z,2.00
2019-01-13T07:59:08.285Z,2.10
2019-01-13T08:01:36.465Z,2.23
2019-01-13T08:04:04.640Z,2.90
2019-01-13T08:06:32.920Z,2.20
2019-01-13T08:09:01.117Z,2.00
2019-01-13T08:11:29.296Z,2.97
2019-01-13T08:13:57.513Z,2.23
2019-01-13T08:16:25.726Z,2.07
2019-01-13T08:18:53.949Z,2.40
2019-01-13T08:21:22.286Z,2.50
2019-01-13T08:23:50.489Z,2.90
2019-01-13T08:26:18.706Z,2.60
2019-01-13T08:28:46.921Z,2.20
2019-01-13T08:31:15.143Z,2.00
2019-01-13T08:33:43.351Z,2.30
2019-01-13T08:36:11.573Z,2.23
2019-01-13T08:38:39.828Z,2.67
2019-01-13T08:41:08.057Z,2.90
2019-01-13T08:43:36.320Z,3.07
2019-01-13T08:46:04.525Z,2.67
2019-01-13T08:48:32.730Z,3.23
2019-01-13T08:51:01.009Z,2.97
2019-01-13T08:53:29.184Z,2.93
2019-01-13T08:55:57.425Z,2.60
2019-01-13T08:58:25.630Z,3.37
2019-01-13T09:00:53.799Z,3.20
2019-01-13T09:03:22.015Z,3.00
2019-01-13T09:05:50.303Z,3.13
2019-01-13T09:08:18.509Z,3.30
2019-01-13T09:10:46.711Z,3.20
2019-01-13T09:13:14.913Z,2.90
2019-01-13T09:15:43.088Z,3.60
2019-01-13T09:18:11.340Z,2.80
2019-01-13T09:20:39.523Z,3.50
2019-01-13T09:23:07.743Z,5.27
2019-01-13T09:25:35.949Z,3.20
2019-01-13T09:28:04.120Z,3.87
2019-01-13T09:30:32.316Z,3.33
2019-01-13T09:33:00.530Z,3.20
2019-01-13T09:35:28.938Z,4.20
2019-01-13T09:37:57.380Z,4.53
2019-01-13T09:40:27.129Z,4.17
2019-01-13T09:42:55.378Z,3.77
2019-01-13T09:45:24.005Z,5.60
2019-01-13T09:47:52.216Z,4.37
2019-01-13T09:50:21.405Z,4.40
2019-01-13T09:52:49.567Z,3.80
2019-01-13T09:55:18.717Z,3.83
2019-01-13T09:57:46.922Z,4.00
2019-01-13T10:00:19.391Z,3.47
2019-01-13T10:02:47.568Z,4.90
2019-01-13T10:05:15.753Z,3.40
2019-01-13T10:07:43.965Z,3.47
2019-01-13T10:10:12.512Z,3.73
2019-01-13T10:12:40.749Z,3.30
2019-01-13T10:15:10.600Z,3.50
2019-01-13T10:17:38.781Z,3.70
2019-01-13T10:20:08.868Z,3.63
2019-01-13T10:22:37.133Z,3.80
2019-01-13T10:25:06.408Z,3.53
2019-01-13T10:27:34.575Z,4.20
2019-01-13T10:30:04.317Z,4.10
2019-01-13T10:32:32.497Z,3.90
2019-01-13T10:35:00.700Z,4.33
2019-01-13T10:37:28.912Z,3.60
2019-01-13T10:39:57.076Z,4.90
2019-01-13T10:42:25.302Z,4.40
2019-01-13T10:44:53.548Z,4.30
2019-01-13T10:47:21.764Z,5.03
2019-01-13T10:49:49.971Z,5.10
2019-01-13T10:52:18.218Z,5.57
2019-01-13T10:54:46.406Z,4.97
2019-01-13T10:57:14.580Z,4.10
2019-01-13T10:59:42.797Z,4.03
2019-01-13T11:02:10.980Z,4.53
2019-01-13T11:04:39.204Z,4.50
2019-01-13T11:07:07.409Z,4.27
2019-01-13T11:09:35.621Z,3.93
2019-01-13T11:12:03.969Z,3.50
2019-01-13T11:14:32.172Z,3.47
2019-01-13T11:17:00.368Z,3.23
2019-01-13T11:19:28.629Z,4.13
2019-01-13T11:21:56.800Z,3.90
2019-01-13T11:24:25.013Z,3.80
2019-01-13T11:26:53.184Z,4.10
2019-01-13T11:29:21.367Z,4.50
2019-01-13T11:31:49.537Z,3.33
2019-01-13T11:34:17.848Z,2.93
2019-01-13T11:36:46.024Z,3.20
2019-01-13T11:39:14.196Z,2.20
2019-01-13T11:41:42.413Z,2.53
2019-01-13T11:44:10.613Z,2.57
2019-01-13T11:46:38.793Z,2.43
2019-01-13T11:49:06.984Z,2.60
2019-01-13T11:51:35.200Z,2.67
2019-01-13T11:54:03.402Z,3.00
2019-01-13T11:56:31.601Z,2.10
2019-01-13T11:58:59.808Z,1.60
2019-01-13T12:01:28.022Z,2.17
2019-01-13T12:03:56.200Z,2.10
2019-01-13T12:06:24.448Z,1.80
2019-01-13T12:08:52.635Z,2.30
2019-01-13T12:11:20.843Z,1.73
2019-01-13T12:13:49.017Z,2.17
2019-01-13T12:16:17.190Z,2.20
2019-01-13T12:18:45.400Z,1.70
2019-01-13T12:21:13.572Z,2.23
2019-01-13T12:23:41.844Z,1.83
2019-01-13T12:26:10.023Z,1.40
2019-01-13T12:28:38.199Z,2.03
2019-01-13T12:31:06.373Z,2.13
2019-01-13T12:33:34.559Z,2.00
2019-01-13T12:36:02.740Z,1.80
2019-01-13T12:38:30.958Z,2.20
2019-01-13T12:41:00.190Z,2.17
2019-01-13T12:43:28.490Z,1.63
2019-01-13T12:45:56.733Z,1.90
2019-01-13T12:48:24.924Z,2.00
2019-01-13T12:50:53.169Z,1.90
2019-01-13T12:53:21.368Z,1.83
2019-01-13T12:55:49.559Z,1.50
2019-01-13T12:58:17.749Z,1.80
2019-01-13T13:00:45.978Z,2.40
2019-01-13T13:03:14.139Z,2.13
2019-01-13T13:05:42.345Z,1.90
2019-01-13T13:08:10.524Z,2.30
2019-01-13T13:10:39.519Z,2.40
2019-01-13T13:13:07.759Z,2.13
2019-01-13T13:15:35.939Z,2.30
2019-01-13T13:18:04.284Z,3.23
2019-01-13T13:20:32.552Z,2.90
2019-01-13T13:23:00.833Z,2.83
2019-01-13T13:25:32.100Z,2.90
2019-01-13T13:27:58.977Z,3.30
2019-01-13T13:30:27.540Z,2.83
2019-01-13T13:32:55.946Z,3.03
2019-01-13T13:35:24.115Z,1.93
2019-01-13T13:37:52.368Z,3.20
2019-01-13T13:40:22.097Z,3.27
2019-01-13T13:42:50.284Z,3.50
2019-01-13T13:45:18.505Z,4.70
2019-01-13T13:47:47.064Z,4.90
2019-01-13T13:50:16.807Z,4.97
2019-01-13T13:52:45.005Z,4.63
2019-01-13T13:55:13.283Z,4.30
2019-01-13T13:57:41.830Z,5.00
2019-01-13T14:00:14.593Z,5.33
2019-01-13T14:02:42.826Z,5.03
2019-01-13T14:05:10.995Z,4.93
2019-01-13T14:07:39.257Z,4.83
2019-01-13T14:10:12.011Z,4.93
2019-01-13T14:12:40.185Z,5.40
2019-01-13T14:15:09.386Z,4.60
2019-01-13T14:17:37.609Z,5.60
2019-01-13T14:20:07.380Z,5.40
2019-01-13T14:22:35.592Z,5.47
2019-01-13T14:25:04.665Z,4.93
2019-01-13T14:27:32.839Z,5.30
2019-01-13T14:30:01.057Z,5.20
2019-01-13T14:32:29.224Z,5.00
2019-01-13T14:34:57.432Z,5.53
2019-01-13T14:37:25.624Z,5.40
2019-01-13T14:39:53.817Z,5.15
2019-01-13T14:42:22.018Z,4.50
2019-01-13T14:44:50.228Z,4.53
2019-01-13T14:47:18.404Z,4.80
2019-01-13T14:49:46.612Z,4.60
2019-01-13T14:54:42.180Z,4.30
2019-01-13T14:57:10.368Z,4.23
2019-01-13T15:11:55.407Z,3.75
2019-01-13T15:14:23.606Z,3.25
2019-01-13T15:16:51.818Z,4.00
2019-01-13T15:19:20.004Z,3.97
2019-01-13T15:21:48.217Z,3.63
2019-01-13T15:36:34.805Z,3.70
2019-01-13T16:52:44.597Z,3.35
2019-01-13T16:55:13.077Z,3.90
2019-01-13T16:57:41.245Z,3.30
2019-01-13T17:00:11.147Z,3.80
2019-01-13T17:02:39.366Z,3.70
2019-01-13T17:05:08.208Z,3.60
2019-01-13T17:07:36.375Z,3.50
2019-01-13T17:10:09.008Z,3.10
2019-01-13T17:12:37.183Z,3.10
2019-01-13T17:15:06.930Z,2.90
2019-01-13T17:17:35.141Z,2.70
2019-01-13T17:20:04.983Z,2.55
2019-01-13T17:22:33.165Z,2.35
2019-01-13T17:29:57.675Z,2.50
2019-01-13T17:34:53.462Z,3.40
2019-01-13T17:37:21.665Z,3.50
2019-01-13T17:42:17.184Z,3.10
2019-01-13T17:44:45.372Z,2.95
2019-01-13T17:47:13.573Z,3.50
2019-01-13T17:49:41.780Z,3.20
2019-01-13T17:52:09.952Z,3.87
2019-01-13T17:57:05.519Z,2.70
2019-01-13T17:59:33.686Z,2.40
2019-01-13T18:06:56.651Z,1.80
2019-01-13T18:11:52.277Z,1.20
2019-01-13T18:16:47.925Z,1.20
2019-01-13T18:21:43.541Z,1.20
2019-01-13T18:26:39.110Z,1.10
2019-01-13T18:34:02.033Z,1.25
2019-01-13T18:36:30.196Z,1.20
2019-01-13T18:38:58.435Z,1.50
2019-01-13T18:41:26.688Z,1.20
2019-01-13T18:51:16.920Z,1.40
2019-01-13T18:53:45.122Z,1.20
2019-01-13T18:56:13.315Z,1.65
2019-01-13T18:58:41.491Z,1.50
2019-01-13T19:01:09.856Z,1.20
2019-01-13T19:03:38.101Z,1.50
2019-01-13T19:06:06.294Z,1.60
2019-01-13T19:08:34.580Z,1.40
2019-01-13T19:11:04.284Z,1.90
2019-01-13T19:16:00.715Z,1.60
2019-01-13T19:35:40.436Z,2.00
2019-01-13T19:38:08.729Z,1.60
2019-01-13T20:00:17.958Z,1.90
2019-01-13T20:02:46.209Z,1.70
2019-01-13T20:05:14.392Z,2.10
2019-01-13T20:07:42.760Z,1.83
2019-01-13T20:10:12.020Z,1.60
2019-01-13T20:12:40.237Z,1.70
2019-01-13T20:15:09.985Z,1.85
2019-01-13T20:17:38.332Z,1.73
2019-01-13T20:20:08.422Z,2.00
2019-01-13T20:22:36.625Z,1.80
2019-01-13T20:25:06.204Z,1.60
2019-01-13T20:42:19.225Z,2.10
2019-01-13T21:06:55.080Z,1.70
2019-01-13T21:09:23.337Z,1.60
2019-01-13T21:11:51.529Z,2.65
2019-01-13T21:16:47.093Z,2.05
2019-01-13T21:19:15.293Z,2.23
2019-01-13T21:21:43.466Z,2.53
2019-01-13T21:24:11.695Z,1.70
2019-01-13T21:26:39.897Z,2.40
2019-01-13T21:31:35.450Z,1.50
2019-01-13T21:34:03.834Z,2.60
2019-01-13T21:36:32.045Z,2.20
2019-01-13T21:39:00.253Z,2.90
2019-01-13T21:41:28.448Z,2.20
2019-01-13T21:43:56.669Z,2.33
2019-01-13T21:46:24.869Z,2.83
2019-01-13T21:48:53.052Z,2.60
2019-01-13T21:51:21.242Z,2.33
2019-01-13T21:53:49.544Z,1.97
2019-01-13T21:56:17.728Z,3.30
2019-01-13T21:58:45.932Z,2.60
2019-01-13T22:01:14.131Z,2.90
2019-01-13T22:03:42.343Z,2.90
2019-01-13T22:06:10.582Z,2.17
2019-01-13T22:08:38.805Z,2.50
2019-01-13T22:11:07.024Z,2.97
2019-01-13T22:13:35.205Z,2.40
2019-01-13T22:16:03.467Z,1.97
2019-01-13T22:18:31.643Z,2.07
2019-01-13T22:20:59.819Z,2.40
2019-01-13T22:23:28.047Z,2.43
2019-01-13T22:25:56.228Z,2.30
2019-01-13T22:28:24.465Z,2.53
2019-01-13T22:30:52.682Z,2.57
2019-01-13T22:33:20.935Z,2.00
2019-01-13T22:35:49.148Z,1.90
2019-01-13T22:38:17.360Z,2.30
2019-01-13T22:40:45.567Z,2.80
2019-01-13T22:43:13.760Z,1.70
2019-01-13T22:45:41.951Z,2.53
2019-01-13T22:48:10.162Z,2.10
2019-01-13T22:50:38.376Z,2.30
2019-01-13T22:53:06.628Z,2.60
2019-01-13T22:55:34.811Z,2.40
2019-01-13T22:58:02.995Z,2.27
2019-01-13T23:00:49.299Z,2.10
2019-01-13T23:03:17.677Z,2.10
2019-01-13T23:05:45.878Z,2.60
2019-01-13T23:08:14.061Z,2.17
2019-01-13T23:10:42.277Z,2.40
2019-01-13T23:13:10.469Z,2.40
2019-01-13T23:15:38.648Z,2.37
2019-01-13T23:18:06.901Z,2.13
2019-01-13T23:20:35.122Z,2.43
2019-01-13T23:23:03.296Z,2.07
2019-01-13T23:25:31.544Z,2.20
2019-01-13T23:27:59.753Z,2.13
2019-01-13T23:30:27.919Z,2.07
2019-01-13T23:32:56.145Z,2.43
2019-01-13T23:35:24.366Z,2.30
2019-01-13T23:37:52.598Z,2.27
2019-01-13T23:40:20.768Z,2.47
2019-01-13T23:42:48.978Z,2.40
2019-01-13T23:45:17.200Z,1.93
2019-01-13T23:47:45.412Z,1.90
2019-01-13T23:50:13.616Z,1.73
2019-01-13T23:52:41.816Z,2.57
2019-01-13T23:55:10.159Z,1.80
2019-01-13T23:57:38.341Z,2.63
